Time;durP1;ratioP1;P1;durP2;ratioP2;P2;SDS_P1;SDS_P2;PMS_P1;PMS_P2;Temp;Humidity;BMP_temperature;BMP_pressure;BME280_temperature;BME280_humidity;BME280_pressure;Samples;Min_cycle;Max_cycle;Signal;HPM_P1;HPM_P2
2022/02/15 04:39:14;;;;;;;;;;;;;;;20.89;20.77;101135.56;90824;1305;74130;-90
2022/02/15 06:15:13;;;;;;;;;;;;;;;19.96;20.61;101227.02;96716;1304;103749;-89
2022/02/15 06:36:41;;;;;;;;;;;;;;;19.87;20.75;101207.94;88830;1324;80797;-90
2022/02/15 06:43:12;;;;;;;;;;;;;;;19.95;20.85;101212.90;99560;1320;67942;-91
2022/02/15 06:49:29;;;;;;;;;;;;;;;19.99;20.66;101214.03;90018;1305;75088;-90
2022/02/15 07:20:24;;;;;;;;;;;;;;;20.08;20.76;101193.08;94711;1307;76119;-90
2022/02/15 07:43:46;;;;;;;;;;;;;;;20.53;20.60;101195.75;94573;1310;71657;-92
2022/02/15 08:00:18;;;;;;;;;;;;;;;20.81;20.73;101177.36;99707;1310;71368;31
2022/02/15 08:05:45;;;;;;;;;;;;;;;20.86;20.77;101169.74;103395;1307;69098;-85
2022/02/15 08:08:11;;;;;;;;;;;;;;;20.88;20.83;101160.40;103341;1319;74726;-88
2022/02/15 08:16:15;;;;;;;;;;;;;;;20.93;20.88;101159.65;95893;1310;66993;-93
2022/02/15 08:22:50;;;;;;;;;;;;;;;21.00;21.02;101152.50;103995;1307;73528;-90
2022/02/15 08:28:53;;;;;;;;;;;;;;;21.08;21.11;101144.09;90305;1303;71072;-92
2022/02/15 08:37:52;;;;;;;;;;;;;;;21.12;21.25;101158.21;95810;1317;73553;-89
2022/02/15 08:40:40;;;;;;;;;;;;;;;21.13;21.28;101155.05;104360;1307;81953;-90
2022/02/15 08:43:28;;;;;;;;;;;;;;;21.14;21.29;101155.42;103874;1308;71410;-92
2022/02/15 09:11:32;;;;;;;;;;;;;;;21.48;21.57;101171.77;104201;1306;81403;-93
2022/02/15 09:24:13;;;;;;;;;;;;;;;21.51;21.51;101158.20;94828;1306;75336;-92
2022/02/15 09:27:19;;;;;;;;;;;;;;;21.47;21.38;101155.88;98296;1306;81576;-92
2022/02/15 09:30:40;;;;;;;;;;;;;;;21.45;21.53;101151.96;104441;1306;72984;-90
2022/02/15 09:43:21;;;;;;;;;;;;;;;21.51;21.54;101125.35;91064;1304;81586;-93
2022/02/15 09:52:49;;;;;;;;;;;;;;;21.52;21.61;101111.98;102307;1309;67222;-93
2022/02/15 10:05:47;;;;;;;;;;;;;;;21.62;21.50;101113.16;90974;1304;68470;-88
2022/02/15 11:13:25;;;;;;;;;;;;;;;21.78;21.15;101038.03;103796;1304;68154;-92
2022/02/15 11:19:14;;;;;;;;;;;;;;;21.80;21.25;101035.98;99568;1304;80285;-90
2022/02/15 11:25:13;;;;;;;;;;;;;;;21.83;21.09;101033.45;100233;1309;5007794;-92
2022/02/15 11:31:00;;;;;;;;;;;;;;;21.88;21.15;101028.77;103674;1306;74287;-90
2022/02/15 11:39:27;;;;;;;;;;;;;;;21.93;21.04;101016.48;94807;1306;67951;-92
2022/02/15 11:42:55;;;;;;;;;;;;;;;21.95;21.11;101011.02;104536;1304;68389;-90
2022/02/15 12:47:00;;;;;;;;;;;;;;;21.92;21.34;100964.52;90087;1310;68727;31
2022/02/15 13:13:03;;;;;;;;;;;;;;;22.25;21.42;100937.94;89870;1307;72053;-93
2022/02/15 13:41:30;;;;;;;;;;;;;;;22.10;23.26;100945.73;90713;1307;80204;-93
2022/02/15 13:47:28;;;;;;;;;;;;;;;22.08;23.29;100938.51;104354;1304;67963;-91
2022/02/15 13:56:03;;;;;;;;;;;;;;;22.12;23.29;100935.39;90214;1304;80289;-92
2022/02/15 13:59:07;;;;;;;;;;;;;;;22.14;23.40;100936.52;103491;1305;72672;-91
2022/02/15 14:05:02;;;;;;;;;;;;;;;22.16;23.32;100936.27;103663;1304;69016;-92
2022/02/15 14:10:51;;;;;;;;;;;;;;;22.18;23.05;100929.86;100908;1304;83010;-91
2022/02/15 14:13:54;;;;;;;;;;;;;;;22.18;23.22;100936.83;103741;1304;71960;-91
2022/02/15 14:19:52;;;;;;;;;;;;;;;22.20;23.15;100943.81;103864;1304;69070;-91
2022/02/15 14:25:37;;;;;;;;;;;;;;;22.21;23.05;100936.27;103686;1306;81834;31
2022/02/15 14:31:36;;;;;;;;;;;;;;;22.21;22.93;100929.56;103888;1304;66600;31
2022/02/15 14:38:04;;;;;;;;;;;;;;;22.22;22.83;100929.01;104205;1307;74605;-92
2022/02/15 14:44:14;;;;;;;;;;;;;;;22.25;22.66;100925.63;103908;1307;72671;-92
2022/02/15 14:50:19;;;;;;;;;;;;;;;22.26;22.80;100918.10;104000;1307;68460;-90
2022/02/15 14:55:55;;;;;;;;;;;;;;;22.28;22.71;100918.66;104045;1304;81932;-91
2022/02/15 15:11:04;;;;;;;;;;;;;;;22.34;22.62;100927.45;99881;1303;80383;-93
2022/02/15 15:26:38;;;;;;;;;;;;;;;22.38;22.65;100933.56;95805;1307;80964;-93
2022/02/15 16:23:49;;;;;;;;;;;;;;;22.44;22.22;100945.06;90395;1306;67154;-93
2022/02/15 16:39:10;;;;;;;;;;;;;;;22.49;22.20;100949.95;92074;1306;68444;-91
2022/02/15 16:45:10;;;;;;;;;;;;;;;22.50;22.22;100955.95;90612;1306;80468;-92
2022/02/15 16:51:05;;;;;;;;;;;;;;;22.51;22.26;100960.88;96199;1307;70381;-91
2022/02/15 16:54:14;;;;;;;;;;;;;;;22.52;22.26;100963.54;104024;1307;66386;-91
2022/02/15 17:05:45;;;;;;;;;;;;;;;22.50;22.23;100977.08;104036;1307;67427;-92
2022/02/15 17:11:44;;;;;;;;;;;;;;;22.48;22.26;100966.71;103944;1307;73928;-91
2022/02/15 17:17:29;;;;;;;;;;;;;;;22.48;22.21;100959.98;103753;1307;71602;-91
2022/02/15 17:26:13;;;;;;;;;;;;;;;22.46;22.15;100958.09;104083;1306;73824;-91
2022/02/15 17:32:05;;;;;;;;;;;;;;;22.45;22.21;100961.38;104018;1307;70731;-91
2022/02/15 17:37:43;;;;;;;;;;;;;;;22.44;22.25;100960.14;103921;1307;68521;-90
2022/02/15 17:46:44;;;;;;;;;;;;;;;22.44;22.11;100952.70;103705;1307;71569;-91
2022/02/15 17:53:01;;;;;;;;;;;;;;;22.43;22.33;100962.34;103920;1306;70072;-91
2022/02/15 18:05:01;;;;;;;;;;;;;;;22.41;22.19;100978.05;97163;1307;69235;-91
2022/02/15 18:10:58;;;;;;;;;;;;;;;22.41;22.24;100984.25;103920;1306;74264;-91
2022/02/15 18:22:30;;;;;;;;;;;;;;;22.40;22.38;100977.33;103676;1307;68435;-91
2022/02/15 18:25:36;;;;;;;;;;;;;;;22.40;22.11;100973.34;103918;1306;73832;-91
2022/02/15 18:43:57;;;;;;;;;;;;;;;22.39;22.15;100974.10;89784;1307;81228;-92
2022/02/15 18:53:14;;;;;;;;;;;;;;;22.39;22.31;100985.03;98584;1306;69200;-90
2022/02/15 18:59:07;;;;;;;;;;;;;;;22.38;22.30;100985.74;103672;1306;81743;-91
2022/02/15 19:04:46;;;;;;;;;;;;;;;22.39;22.13;100988.16;103737;1307;67880;-91
2022/02/15 19:13:22;;;;;;;;;;;;;;;22.39;22.22;100993.65;103683;1306;81738;-91
2022/02/15 19:19:02;;;;;;;;;;;;;;;22.38;22.19;100989.48;103923;1306;69110;-91
2022/02/15 19:22:09;;;;;;;;;;;;;;;22.38;22.18;100998.91;103681;1306;69043;-90
2022/02/15 19:30:41;;;;;;;;;;;;;;;22.38;22.25;100997.38;102896;1306;72137;-90
2022/02/15 19:36:29;;;;;;;;;;;;;;;22.37;22.27;100989.43;103667;1306;69029;31
2022/02/15 19:42:43;;;;;;;;;;;;;;;22.37;22.28;100988.15;103718;1307;81642;-92
2022/02/15 19:48:32;;;;;;;;;;;;;;;22.37;22.34;100992.52;103017;1310;69146;-89
2022/02/15 19:54:38;;;;;;;;;;;;;;;22.37;22.28;100986.72;100797;1306;74365;-91
2022/02/15 20:00:46;;;;;;;;;;;;;;;22.37;22.34;100987.33;103887;1306;72312;-90
2022/02/15 20:06:29;;;;;;;;;;;;;;;22.37;22.26;100992.35;103917;1307;69140;-90
2022/02/15 20:12:30;;;;;;;;;;;;;;;22.37;22.34;100990.81;103682;1306;81869;31
2022/02/15 20:18:12;;;;;;;;;;;;;;;22.37;22.23;100992.77;103950;1307;69147;-89
2022/02/15 20:31:59;;;;;;;;;;;;;;;22.36;22.23;100996.65;103801;1305;69778;-91
2022/02/15 20:37:33;;;;;;;;;;;;;;;22.36;22.29;100994.25;104055;1306;74114;-92
2022/02/15 20:43:13;;;;;;;;;;;;;;;22.35;22.15;100986.75;103920;1307;71092;-91
2022/02/15 20:48:55;;;;;;;;;;;;;;;22.36;22.25;100984.52;103786;1306;66759;-91
2022/02/15 20:54:39;;;;;;;;;;;;;;;22.36;22.23;100978.88;103837;1306;80948;-90
2022/02/15 21:00:23;;;;;;;;;;;;;;;22.36;22.26;100980.20;103673;1306;69058;-91
2022/02/15 21:06:39;;;;;;;;;;;;;;;22.36;22.23;100972.86;90727;1306;76688;-90
2022/02/15 21:09:49;;;;;;;;;;;;;;;22.36;22.16;100974.61;103726;1306;82016;-91
2022/02/15 21:18:35;;;;;;;;;;;;;;;22.36;22.24;100967.73;102607;1307;66890;-91
2022/02/15 21:27:22;;;;;;;;;;;;;;;22.36;22.32;100959.29;103922;1307;71775;-92
2022/02/15 21:33:06;;;;;;;;;;;;;;;22.36;22.38;100957.02;103697;1306;69110;-90
2022/02/15 21:39:01;;;;;;;;;;;;;;;22.36;22.35;100954.55;103685;1306;81202;31
2022/02/15 21:45:01;;;;;;;;;;;;;;;22.36;22.28;100964.61;103568;1306;66110;31
2022/02/15 21:51:05;;;;;;;;;;;;;;;22.36;22.37;100964.15;104298;1306;73425;31
2022/02/15 21:59:57;;;;;;;;;;;;;;;22.36;22.17;100969.64;88962;1320;68462;-90
2022/02/15 22:03:07;;;;;;;;;;;;;;;22.37;22.37;100969.18;91375;1306;66314;-89
2022/02/15 22:09:16;;;;;;;;;;;;;;;22.36;22.28;100970.15;104088;1307;81758;-91
2022/02/15 22:14:57;;;;;;;;;;;;;;;22.37;22.15;100969.89;89865;1305;68573;-91
2022/02/15 22:23:53;;;;;;;;;;;;;;;22.37;22.25;100968.25;103376;1306;80731;-91
2022/02/15 22:30:12;;;;;;;;;;;;;;;22.37;22.26;100969.79;103074;1307;69374;-91
2022/02/15 22:36:42;;;;;;;;;;;;;;;22.37;22.07;100973.23;103619;1306;74182;-91
2022/02/15 22:42:26;;;;;;;;;;;;;;;22.38;22.16;100967.75;89857;1307;71589;-90
2022/02/15 22:57:32;;;;;;;;;;;;;;;22.38;22.23;100969.80;103639;1306;72097;-90
2022/02/15 23:03:22;;;;;;;;;;;;;;;22.39;22.18;100973.65;103673;1306;66968;-91
2022/02/15 23:21:39;;;;;;;;;;;;;;;22.39;22.14;100968.04;103483;1304;76903;-91
2022/02/15 23:27:30;;;;;;;;;;;;;;;22.40;22.19;100964.45;103594;1306;71977;-90
2022/02/15 23:33:03;;;;;;;;;;;;;;;22.40;22.20;100958.20;103930;1304;67214;-91
2022/02/15 23:38:49;;;;;;;;;;;;;;;22.39;22.24;100950.27;103676;1304;82116;-91
2022/02/15 23:44:43;;;;;;;;;;;;;;;22.39;21.94;100952.21;103642;1304;69039;31
2022/02/15 23:50:30;;;;;;;;;;;;;;;22.38;22.18;100949.64;103615;1304;74203;31
2022/02/15 23:56:41;;;;;;;;;;;;;;;22.39;22.07;100941.20;103431;1306;72580;-91
